Time;durP1;ratioP1;P1;durP2;ratioP2;P2;SDS_P1;SDS_P2;PMS_P1;PMS_P2;Temp;Humidity;BMP_temperature;BMP_pressure;BME280_temperature;BME280_humidity;BME280_pressure;Samples;Min_cycle;Max_cycle;Signal;HPM_P1;HPM_P2
2022/12/14 00:02:01;;;;;;;41.58;23.30;;;;;;;-7.41;87.40;99277.75;10463361;28;20041;-74
2022/12/14 00:07:03;;;;;;;38.25;23.27;;;;;;;-7.53;87.99;99274.88;10460950;28;20051;-74
2022/12/14 00:12:07;;;;;;;44.47;24.25;;;;;;;-7.53;88.63;99265.50;10461759;28;20076;-74
2022/12/14 00:17:09;;;;;;;47.97;23.88;;;;;;;-7.46;89.11;99261.47;10461097;28;20139;-74
2022/12/14 00:22:11;;;;;;;38.70;24.20;;;;;;;-7.42;89.04;99247.97;10463514;28;20538;-74
2022/12/14 00:27:12;;;;;;;43.22;23.95;;;;;;;-7.40;89.67;99253.94;10442138;28;20052;-74
2022/12/14 00:32:14;;;;;;;40.75;24.35;;;;;;;-7.36;90.12;99245.56;10441396;28;20040;-74
2022/12/14 00:37:16;;;;;;;52.55;26.35;;;;;;;-7.19;89.23;99244.31;10459768;28;20083;-73
2022/12/14 00:42:17;;;;;;;52.42;26.40;;;;;;;-7.37;90.57;99251.50;10460917;28;20041;-74
2022/12/14 00:47:19;;;;;;;52.83;25.73;;;;;;;-7.36;91.07;99246.41;10460204;28;20063;-74
2022/12/14 00:52:20;;;;;;;57.78;27.40;;;;;;;-7.34;91.62;99233.72;10458990;28;20041;-74
2022/12/14 00:57:22;;;;;;;50.78;26.55;;;;;;;-7.04;90.53;99242.97;10441172;28;20099;-73
2022/12/14 01:02:24;;;;;;;59.33;26.45;;;;;;;-7.02;90.60;99249.88;10458893;28;20052;-73
2022/12/14 01:07:26;;;;;;;49.85;26.33;;;;;;;-7.06;90.54;99250.63;10460540;28;20041;-73
2022/12/14 01:12:28;;;;;;;48.05;27.17;;;;;;;-6.93;90.58;99245.00;10458433;28;20041;-74
2022/12/14 01:17:29;;;;;;;44.42;24.85;;;;;;;-7.03;90.62;99232.81;10458346;28;20086;-73
2022/12/14 01:22:31;;;;;;;44.80;25.98;;;;;;;-6.97;90.80;99219.31;10441070;28;20072;-73
2022/12/14 01:27:33;;;;;;;46.33;25.25;;;;;;;-6.99;90.50;99213.34;10459864;28;20137;-73
2022/12/14 01:32:34;;;;;;;37.95;24.60;;;;;;;-6.93;90.16;99209.22;10457610;28;20072;-73
2022/12/14 01:37:36;;;;;;;36.38;23.45;;;;;;;-7.08;90.84;99210.53;10439544;28;20049;-74
2022/12/14 01:42:38;;;;;;;38.78;23.55;;;;;;;-6.97;91.49;99198.88;10458027;28;20079;-73
2022/12/14 01:47:43;;;;;;;42.58;22.90;;;;;;;-6.68;88.83;99194.50;10441137;28;20048;-73
2022/12/14 01:52:48;;;;;;;31.15;21.40;;;;;;;-6.95;88.88;99197.22;10457472;28;20045;-73
2022/12/14 01:57:55;;;;;;;32.88;22.23;;;;;;;-6.79;88.51;99199.34;10458255;28;20465;-73
2022/12/14 02:03:06;;;;;;;34.03;21.60;;;;;;;-6.67;88.47;99197.06;10456772;28;20074;-73
2022/12/14 02:08:08;;;;;;;26.02;20.63;;;;;;;-6.71;88.87;99202.94;10459369;28;20383;-72
2022/12/14 02:13:21;;;;;;;25.42;19.77;;;;;;;-6.80;90.16;99202.72;10457909;28;20037;-73
2022/12/14 02:18:26;;;;;;;31.27;19.83;;;;;;;-6.52;91.16;99198.25;10456672;28;20037;-72
2022/12/14 02:23:49;;;;;;;32.22;20.52;;;;;;;-6.32;89.72;99198.72;10445644;28;20053;-73
2022/12/14 02:29:09;;;;;;;21.75;19.02;;;;;;;-6.53;89.70;99187.16;10447769;28;20413;-72
2022/12/14 02:34:44;;;;;;;25.15;18.92;;;;;;;-6.33;89.21;99181.63;10467499;28;20063;-72
2022/12/14 02:40:06;;;;;;;26.15;19.08;;;;;;;-6.26;89.26;99181.78;10446670;28;20047;-73
2022/12/14 02:45:31;;;;;;;27.15;19.25;;;;;;;-6.29;88.64;99185.97;10447841;28;20071;-72
2022/12/14 02:50:36;;;;;;;28.67;19.10;;;;;;;-6.25;88.21;99172.41;10434882;28;20053;-73
2022/12/14 02:55:44;;;;;;;23.08;18.85;;;;;;;-6.57;88.74;99174.28;10465961;28;20033;-72
2022/12/14 03:00:48;;;;;;;24.05;18.42;;;;;;;-6.37;88.74;99171.34;10464224;28;20053;-72
2022/12/14 03:05:58;;;;;;;22.23;18.30;;;;;;;-6.13;88.27;99165.88;10464025;28;20049;-72
2022/12/14 03:11:05;;;;;;;24.10;19.13;;;;;;;-5.95;88.24;99160.25;10463924;28;20037;-72
2022/12/14 03:16:15;;;;;;;21.65;19.38;;;;;;;-5.97;88.76;99140.63;10464806;28;20051;-72
2022/12/14 03:21:23;;;;;;;24.40;18.65;;;;;;;-5.82;87.73;99145.13;10464199;28;20037;-72
2022/12/14 03:26:38;;;;;;;25.10;19.08;;;;;;;-5.95;87.58;99134.69;10463919;28;20045;-72
2022/12/14 03:31:53;;;;;;;23.95;19.85;;;;;;;-5.84;86.82;99128.03;10462227;28;20387;-73
2022/12/14 03:37:10;;;;;;;21.58;19.38;;;;;;;-5.66;86.30;99119.00;10465547;28;20037;-73
2022/12/14 03:42:22;;;;;;;20.77;18.67;;;;;;;-5.67;85.84;99120.66;10462174;28;20033;-73
2022/12/14 03:47:38;;;;;;;23.98;18.98;;;;;;;-5.81;87.00;99114.44;10462084;28;20417;-73
2022/12/14 03:52:55;;;;;;;30.57;19.37;;;;;;;-5.84;85.74;99111.84;10444518;28;20053;-73
2022/12/14 03:58:38;;;;;;;32.55;18.90;;;;;;;-5.71;86.77;99103.53;10463592;28;20065;-73
2022/12/14 04:03:50;;;;;;;22.52;19.90;;;;;;;-5.81;86.88;99099.06;10294841;28;20050;-73
2022/12/14 04:09:10;;;;;;;23.50;18.52;;;;;;;-5.65;85.88;99089.97;10294060;28;20062;-73
2022/12/14 04:19:49;;;;;;;23.73;17.63;;;;;;;-5.65;85.23;99097.66;10296675;28;20066;-73
2022/12/14 04:30:38;;;;;;;24.63;19.30;;;;;;;-5.72;85.88;99081.31;10293968;28;20187;-73
2022/12/14 04:35:41;;;;;;;19.73;17.33;;;;;;;-5.65;85.55;99066.94;10293140;28;20055;-73
2022/12/14 04:40:57;;;;;;;22.63;17.83;;;;;;;-5.89;85.94;99058.00;10438976;28;20499;-74
2022/12/14 04:46:13;;;;;;;26.33;18.63;;;;;;;-5.94;86.65;99056.22;10459115;28;20037;-73
2022/12/14 04:51:32;;;;;;;20.92;18.77;;;;;;;-5.74;86.17;99046.31;10459956;28;20295;-73
2022/12/14 04:56:52;;;;;;;22.17;18.35;;;;;;;-5.86;86.13;99039.28;10460200;28;20115;-73
2022/12/14 05:01:53;;;;;;;24.73;19.33;;;;;;;-5.79;86.53;99040.25;10462337;28;20037;-73
2022/12/14 05:07:16;;;;;;;25.70;18.73;;;;;;;-5.77;85.47;99025.78;10442567;28;20060;-74
2022/12/14 05:12:33;;;;;;;24.88;18.20;;;;;;;-5.72;85.17;99008.78;10459845;28;20065;-73
2022/12/14 05:17:39;;;;;;;21.23;17.95;;;;;;;-5.76;85.50;99004.44;10441309;28;20076;-73
2022/12/14 05:22:42;;;;;;;24.83;18.10;;;;;;;-5.78;85.12;99004.44;10461906;28;20128;-73
2022/12/14 05:27:45;;;;;;;25.02;19.58;;;;;;;-5.89;85.54;98998.25;10441665;28;20391;-73
2022/12/14 05:32:47;;;;;;;23.52;18.50;;;;;;;-5.78;84.88;98996.75;10458229;28;20474;-72
2022/12/14 05:37:49;;;;;;;25.05;18.42;;;;;;;-5.72;85.40;98990.88;10458574;28;20044;-73
2022/12/14 05:42:50;;;;;;;31.38;21.73;;;;;;;-5.87;86.11;98987.22;10458955;28;20124;-73
2022/12/14 05:47:56;;;;;;;21.77;18.27;;;;;;;-5.83;85.91;98977.91;10440839;28;20052;-73
2022/12/14 05:52:58;;;;;;;26.10;19.65;;;;;;;-5.56;84.76;98962.13;10457240;28;20483;-73
2022/12/14 05:58:00;;;;;;;27.95;19.60;;;;;;;-5.63;84.31;98961.16;10457284;28;20045;-73
2022/12/14 06:03:01;;;;;;;26.88;19.73;;;;;;;-5.76;85.32;98959.25;10440896;28;20124;-73
2022/12/14 06:08:03;;;;;;;25.15;17.63;;;;;;;-5.63;85.10;98945.78;10460080;28;20497;-72
2022/12/14 06:13:05;;;;;;;20.15;17.42;;;;;;;-5.62;84.95;98947.53;10458176;28;20051;-74
2022/12/14 06:18:07;;;;;;;27.25;19.15;;;;;;;-5.39;84.17;98944.44;10457893;28;20037;-73
2022/12/14 06:23:09;;;;;;;25.90;19.27;;;;;;;-5.53;84.08;98954.50;10457279;28;20072;-74
2022/12/14 06:28:10;;;;;;;22.40;18.33;;;;;;;-5.39;83.34;98953.00;10443474;28;20045;-73
2022/12/14 06:33:12;;;;;;;22.23;18.00;;;;;;;-5.45;83.29;98942.66;10457113;28;20069;-73
2022/12/14 06:38:15;;;;;;;21.77;18.10;;;;;;;-5.63;84.97;98937.25;10456892;28;20104;-74
2022/12/14 06:43:16;;;;;;;20.30;18.20;;;;;;;-5.71;85.80;98938.81;10439725;28;20486;-73
2022/12/14 06:48:18;;;;;;;19.08;17.05;;;;;;;-5.44;84.05;98928.16;10440547;28;20115;-72
2022/12/14 06:53:20;;;;;;;18.67;16.75;;;;;;;-5.25;83.31;98931.84;10438739;28;20041;-73
2022/12/14 06:58:22;;;;;;;18.00;15.55;;;;;;;-5.08;82.61;98923.53;10457238;28;20120;-71
2022/12/14 07:03:30;;;;;;;18.33;16.42;;;;;;;-5.21;82.97;98910.53;10457254;28;20060;-72
2022/12/14 07:08:35;;;;;;;19.42;17.42;;;;;;;-5.19;83.03;98912.28;10459600;28;20124;-74
2022/12/14 07:13:37;;;;;;;19.30;16.55;;;;;;;-5.19;82.83;98917.41;10465472;28;20446;-74
2022/12/14 07:18:39;;;;;;;20.40;18.13;;;;;;;-5.09;82.77;98911.56;10462861;28;20049;-74
2022/12/14 07:23:42;;;;;;;19.67;17.20;;;;;;;-5.02;82.21;98907.38;10463294;28;20049;-75
2022/12/14 07:28:44;;;;;;;20.27;16.35;;;;;;;-5.26;83.69;98897.69;10462661;28;20556;-74
2022/12/14 07:33:46;;;;;;;19.58;17.02;;;;;;;-5.01;83.21;98891.13;10463891;28;20451;-74
2022/12/14 07:38:49;;;;;;;17.50;15.80;;;;;;;-4.89;82.18;98885.31;10462144;28;20044;-74
2022/12/14 07:43:53;;;;;;;20.73;16.30;;;;;;;-4.71;81.25;98885.50;10461765;28;20044;-73
2022/12/14 07:48:56;;;;;;;17.83;15.63;;;;;;;-4.67;81.47;98889.81;10461264;28;20040;-73
2022/12/14 07:54:00;;;;;;;20.58;15.60;;;;;;;-4.84;81.55;98875.97;10462161;28;20041;-73
2022/12/14 07:59:05;;;;;;;22.38;16.08;;;;;;;-4.77;81.68;98869.22;10461245;28;20136;-72
2022/12/14 08:04:13;;;;;;;17.02;15.25;;;;;;;-4.64;80.72;98860.81;10461071;28;20047;-74
2022/12/14 08:09:16;;;;;;;18.75;15.80;;;;;;;-4.53;80.33;98848.94;10461355;28;20045;-74
2022/12/14 08:14:18;;;;;;;18.10;16.30;;;;;;;-4.71;81.53;98849.63;10461622;28;20036;-73
2022/12/14 08:19:20;;;;;;;18.00;16.05;;;;;;;-4.50;80.61;98851.53;10460184;28;20049;-73
2022/12/14 08:24:21;;;;;;;17.95;16.15;;;;;;;-4.34;80.05;98832.88;10460345;28;20041;-73
2022/12/14 08:29:23;;;;;;;19.42;16.48;;;;;;;-4.43;80.70;98831.91;10459122;28;20053;-74
2022/12/14 08:34:25;;;;;;;17.70;15.90;;;;;;;-4.22;80.45;98824.41;10459396;28;20045;-73
2022/12/14 08:39:26;;;;;;;23.20;17.50;;;;;;;-4.14;79.89;98825.31;10461490;28;20049;-73
2022/12/14 08:44:28;;;;;;;22.38;16.75;;;;;;;-4.08;80.04;98827.94;10459077;28;20102;-73
2022/12/14 08:49:29;;;;;;;18.27;16.38;;;;;;;-4.16;79.86;98813.31;10458849;28;20411;-73
2022/12/14 08:54:34;;;;;;;21.27;16.98;;;;;;;-4.02;79.99;98801.47;10458697;28;20076;-73
2022/12/14 08:59:36;;;;;;;17.90;16.00;;;;;;;-3.76;79.11;98782.78;10459866;28;20127;-74
2022/12/14 09:04:57;;;;;;;18.23;16.45;;;;;;;-3.68;79.42;98781.97;10459172;28;20044;-74
2022/12/14 09:09:59;;;;;;;17.95;16.10;;;;;;;-3.61;79.10;98764.88;10440987;28;20044;-74
2022/12/14 09:15:01;;;;;;;21.15;17.63;;;;;;;-3.49;78.57;98772.66;10457496;28;20059;-74
2022/12/14 09:20:03;;;;;;;24.58;16.50;;;;;;;-3.42;77.57;98763.25;10458830;28;20054;-74
2022/12/14 09:25:05;;;;;;;18.98;16.98;;;;;;;-3.43;77.54;98749.53;10457496;28;20040;-74
2022/12/14 09:30:07;;;;;;;21.00;18.85;;;;;;;-3.40;78.71;98741.84;10457577;28;20036;-74
2022/12/14 09:35:09;;;;;;;20.52;18.23;;;;;;;-3.21;77.13;98736.75;10457376;28;20040;-74
2022/12/14 09:40:12;;;;;;;20.13;18.00;;;;;;;-3.28;78.00;98733.31;10457901;28;20465;-74
2022/12/14 09:45:23;;;;;;;20.35;17.85;;;;;;;-3.25;77.47;98724.75;10457733;28;20037;-74
2022/12/14 09:50:26;;;;;;;21.83;18.08;;;;;;;-3.13;78.75;98706.81;10438590;28;20059;-74
2022/12/14 09:55:42;;;;;;;27.38;19.17;;;;;;;-3.09;78.35;98700.81;10456744;28;20405;-74
2022/12/14 10:00:48;;;;;;;20.90;18.15;;;;;;;-2.94;77.47;98689.69;10458118;28;20420;-74
2022/12/14 10:06:10;;;;;;;21.55;19.35;;;;;;;-2.78;76.91;98670.84;10439003;28;20045;-74
2022/12/14 10:11:30;;;;;;;20.77;17.40;;;;;;;-2.60;76.19;98664.81;10456141;28;20041;-74
2022/12/14 10:16:55;;;;;;;21.98;19.65;;;;;;;-2.66;76.92;98670.81;10457076;28;20041;-74
2022/12/14 10:22:05;;;;;;;21.33;19.13;;;;;;;-2.67;77.37;98665.66;10457042;28;20458;-74
2022/12/14 10:27:10;;;;;;;22.88;20.55;;;;;;;-2.53;77.35;98666.50;10439437;28;20045;-73
2022/12/14 10:32:28;;;;;;;21.73;19.63;;;;;;;-1.96;74.34;98645.78;10457823;28;20029;-74
2022/12/14 10:37:41;;;;;;;21.77;19.50;;;;;;;-2.03;73.59;98635.50;10457386;28;20053;-73
2022/12/14 10:42:43;;;;;;;21.02;18.67;;;;;;;-1.78;73.87;98636.25;10457081;28;20091;-74
2022/12/14 10:47:55;;;;;;;23.52;18.88;;;;;;;-1.77;72.08;98634.56;10464010;28;20127;-74
2022/12/14 10:52:58;;;;;;;20.50;18.60;;;;;;;-1.94;72.45;98626.03;10463630;28;20048;-74
2022/12/14 10:58:00;;;;;;;19.63;17.63;;;;;;;-1.85;71.52;98633.72;10462958;28;20110;-74
2022/12/14 11:03:05;;;;;;;19.88;17.88;;;;;;;-1.64;71.62;98615.59;10446042;28;20041;-74
2022/12/14 11:08:08;;;;;;;21.27;19.17;;;;;;;-1.80;71.60;98611.38;10465845;28;20037;-74
2022/12/14 11:13:19;;;;;;;21.02;18.85;;;;;;;-1.70;71.94;98618.19;10445501;28;20041;-74
2022/12/14 11:18:29;;;;;;;18.02;16.30;;;;;;;-1.78;71.17;98610.50;10444994;28;20136;-74
2022/12/14 11:23:46;;;;;;;20.42;18.52;;;;;;;-1.67;71.15;98607.03;10463836;28;20044;-74
2022/12/14 11:28:51;;;;;;;20.92;18.92;;;;;;;-1.59;72.31;98597.53;10462265;28;20071;-74
2022/12/14 11:33:55;;;;;;;20.38;18.15;;;;;;;-1.43;70.25;98587.97;10464541;28;20037;-75
2022/12/14 11:39:00;;;;;;;21.00;18.05;;;;;;;-1.98;71.61;98583.13;10462176;28;20498;-74
2022/12/14 11:44:14;;;;;;;21.27;19.15;;;;;;;-1.99;72.92;98579.72;10461375;28;20487;-75
2022/12/14 11:49:34;;;;;;;26.17;19.77;;;;;;;-1.76;72.54;98574.44;10459899;28;20075;-74
2022/12/14 11:54:38;;;;;;;20.17;18.27;;;;;;;-1.59;71.65;98567.47;10458255;28;20090;-72
2022/12/14 11:59:49;;;;;;;22.27;19.63;;;;;;;-1.95;72.09;98580.53;10459614;28;20045;-75
2022/12/14 12:05:03;;;;;;;21.48;19.42;;;;;;;-1.77;72.05;98567.59;10460151;28;20506;-74
2022/12/14 12:10:08;;;;;;;21.60;19.27;;;;;;;-1.63;71.37;98567.50;10459748;28;20052;-74
2022/12/14 12:15:16;;;;;;;23.48;21.17;;;;;;;-1.89;72.87;98560.75;10461671;28;20048;-73
2022/12/14 12:20:52;;;;;;;22.88;20.58;;;;;;;-1.79;73.54;98556.41;10458914;28;20087;-74
2022/12/14 12:25:57;;;;;;;22.80;20.60;;;;;;;-1.69;72.95;98555.47;10446624;28;20413;-74
2022/12/14 12:31:06;;;;;;;22.65;20.33;;;;;;;-1.59;71.93;98538.25;10458184;28;20055;-74
2022/12/14 12:36:15;;;;;;;23.80;21.38;;;;;;;-1.85;72.76;98546.16;10461058;28;20475;-75
2022/12/14 12:41:43;;;;;;;25.25;21.33;;;;;;;-1.63;72.06;98534.84;10441135;28;20391;-73
2022/12/14 12:46:57;;;;;;;25.17;21.55;;;;;;;-1.88;72.78;98525.56;10459268;28;20069;-74
2022/12/14 12:52:26;;;;;;;25.25;21.48;;;;;;;-1.70;72.53;98524.59;10459296;28;20040;-74
2022/12/14 12:57:40;;;;;;;24.90;20.20;;;;;;;-1.85;71.75;98536.72;10442109;28;20048;-74
2022/12/14 13:02:48;;;;;;;28.55;22.55;;;;;;;-1.88;72.51;98534.13;10458470;28;20041;-74
2022/12/14 13:07:56;;;;;;;30.92;22.58;;;;;;;-1.96;73.73;98530.75;10457171;28;20049;-74
2022/12/14 13:13:15;;;;;;;29.13;22.07;;;;;;;-1.84;73.38;98525.53;10458326;28;20079;-74
2022/12/14 13:18:24;;;;;;;30.13;22.83;;;;;;;-2.06;73.71;98527.38;10459677;28;20041;-74
2022/12/14 13:23:46;;;;;;;30.20;22.08;;;;;;;-2.01;74.13;98517.06;10440104;28;20383;-74
2022/12/14 13:29:07;;;;;;;29.85;23.92;;;;;;;-2.09;74.72;98511.94;10439904;28;20064;-73
2022/12/14 13:34:28;;;;;;;30.20;23.15;;;;;;;-1.89;74.54;98501.53;10458542;28;20041;-75
2022/12/14 13:39:54;;;;;;;31.58;24.55;;;;;;;-2.04;74.47;98502.50;10456549;28;20094;-75
2022/12/14 13:45:01;;;;;;;27.30;21.15;;;;;;;-1.92;73.66;98487.81;10439026;28;20052;-74
2022/12/14 13:50:06;;;;;;;28.05;24.02;;;;;;;-1.82;73.40;98479.16;10457256;28;20055;-75
2022/12/14 13:55:33;;;;;;;37.03;24.98;;;;;;;-2.03;75.10;98481.03;10456838;28;20072;-74
2022/12/14 14:00:44;;;;;;;34.17;24.48;;;;;;;-2.06;74.45;98470.75;10439268;28;20499;-74
2022/12/14 14:05:45;;;;;;;37.55;25.40;;;;;;;-2.04;75.57;98469.03;10457704;28;20045;-74
2022/12/14 14:10:47;;;;;;;37.67;24.30;;;;;;;-2.02;76.23;98463.84;10438410;28;20056;-75
2022/12/14 14:16:02;;;;;;;42.05;24.92;;;;;;;-1.93;75.12;98468.09;10457202;28;20060;-72
2022/12/14 14:21:39;;;;;;;41.60;25.92;;;;;;;-1.87;75.03;98466.31;10463341;28;20052;-70
2022/12/14 14:27:16;;;;;;;41.70;27.08;;;;;;;-2.17;76.49;98477.69;10449300;28;20033;-71
2022/12/14 14:32:32;;;;;;;76.83;38.53;;;;;;;-2.40;78.69;98476.94;10464572;28;20052;-72
2022/12/14 14:37:37;;;;;;;55.83;31.23;;;;;;;-2.17;77.95;98484.53;10464943;28;20756;-70
2022/12/14 14:42:48;;;;;;;39.50;26.48;;;;;;;-2.27;77.35;98488.88;10465430;28;20091;-71
2022/12/14 14:47:55;;;;;;;40.63;26.48;;;;;;;-2.24;77.74;98485.44;10465223;28;20055;-70
2022/12/14 14:53:17;;;;;;;41.35;27.13;;;;;;;-2.49;79.05;98495.00;10464734;28;20045;-70
2022/12/14 14:58:26;;;;;;;43.60;26.33;;;;;;;-2.49;79.76;98498.41;10464802;28;20049;-70
2022/12/14 15:03:54;;;;;;;39.42;26.50;;;;;;;-2.21;78.75;98488.88;10460327;28;20413;-71
2022/12/14 15:09:02;;;;;;;38.97;26.48;;;;;;;-2.35;78.35;98488.06;10452159;28;20065;-71
2022/12/14 15:14:14;;;;;;;39.42;26.95;;;;;;;-2.47;79.33;98485.56;10461678;28;20049;-70
2022/12/14 15:19:26;;;;;;;35.35;25.42;;;;;;;-2.50;79.83;98480.41;10461162;28;20045;-70
2022/12/14 15:24:36;;;;;;;37.60;25.70;;;;;;;-1.94;76.92;98477.53;10460730;28;20041;-72
2022/12/14 15:29:38;;;;;;;46.20;26.80;;;;;;;-2.26;79.00;98474.28;10461736;28;20491;-70
2022/12/14 15:34:50;;;;;;;39.05;27.25;;;;;;;-2.22;77.92;98481.97;10459555;28;20037;-71
2022/12/14 15:40:10;;;;;;;43.00;27.63;;;;;;;-2.18;78.27;98470.81;10457522;28;20083;-70
2022/12/14 15:45:17;;;;;;;44.80;28.33;;;;;;;-2.29;78.96;98462.31;10460813;28;20049;-70
2022/12/14 15:50:31;;;;;;;41.47;21.90;;;;;;;-2.32;79.01;98459.75;10460884;28;20046;-70
2022/12/14 15:55:40;;;;;;;47.25;27.65;;;;;;;-2.44;80.59;98459.78;10460104;28;20099;-70
2022/12/14 16:00:46;;;;;;;54.15;30.10;;;;;;;-2.53;81.31;98463.25;10459495;28;20419;-70
2022/12/14 16:05:49;;;;;;;50.50;29.25;;;;;;;-2.46;80.63;98470.09;10441092;28;20049;-70
2022/12/14 16:10:54;;;;;;;51.92;30.08;;;;;;;-2.55;82.06;98463.28;10459398;28;20055;-70
2022/12/14 16:15:59;;;;;;;54.45;30.33;;;;;;;-2.57;82.65;98459.00;10460454;28;20063;-70
2022/12/14 16:21:02;;;;;;;47.20;29.88;;;;;;;-2.65;83.28;98460.78;10459722;28;20045;-70
2022/12/14 16:26:13;;;;;;;55.55;30.90;;;;;;;-2.64;83.79;98462.47;10460528;28;20036;-70
2022/12/14 16:31:20;;;;;;;54.63;30.42;;;;;;;-2.30;82.33;98471.75;10460007;28;20045;-70
2022/12/14 16:36:24;;;;;;;62.45;33.80;;;;;;;-2.44;82.81;98477.81;10461202;28;20041;-69
2022/12/14 16:41:39;;;;;;;61.70;32.47;;;;;;;-2.44;83.83;98478.66;10459427;28;20518;-70
2022/12/14 16:47:02;;;;;;;58.42;32.25;;;;;;;-2.53;83.66;98486.41;10461639;28;20044;-69
2022/12/14 16:52:18;;;;;;;62.28;34.08;;;;;;;-2.44;84.44;98493.25;10442357;28;20148;-69
2022/12/14 16:57:23;;;;;;;63.87;33.33;;;;;;;-2.58;84.47;98478.72;10460731;28;20040;-70
2022/12/14 17:02:29;;;;;;;63.03;34.10;;;;;;;-2.59;85.15;98466.72;10460071;28;20048;-70
2022/12/14 17:07:32;;;;;;;60.70;33.30;;;;;;;-2.75;86.05;98474.50;10459787;28;20392;-70
2022/12/14 17:12:34;;;;;;;72.63;37.22;;;;;;;-2.93;87.42;98475.41;10462803;28;20045;-70
2022/12/14 17:17:35;;;;;;;66.80;35.20;;;;;;;-2.65;86.24;98477.06;10476551;28;20123;-71
2022/12/14 17:22:37;;;;;;;67.30;36.88;;;;;;;-2.83;87.27;98495.97;10482732;28;20052;-70
2022/12/14 17:27:39;;;;;;;65.03;34.67;;;;;;;-2.60;86.94;98485.59;10481703;28;20040;-72
2022/12/14 17:32:42;;;;;;;67.93;34.83;;;;;;;-2.80;87.32;98498.53;10461811;28;20041;-70
2022/12/14 17:37:44;;;;;;;69.45;35.20;;;;;;;-2.70;87.10;98496.78;10457415;28;20051;-70
2022/12/14 17:42:51;;;;;;;64.60;35.10;;;;;;;-2.85;86.96;98491.69;10441245;28;20053;-71
2022/12/14 17:47:54;;;;;;;65.60;35.10;;;;;;;-3.08;88.66;98495.16;10478476;28;20043;-70
2022/12/14 17:52:55;;;;;;;65.97;36.88;;;;;;;-2.97;88.70;98499.41;10498033;28;20119;-70
2022/12/14 17:57:58;;;;;;;67.47;35.08;;;;;;;-2.94;87.97;98508.00;10498171;28;20048;-70
2022/12/14 18:03:01;;;;;;;63.47;35.58;;;;;;;-3.02;88.87;98499.44;10485924;28;20049;-70
2022/12/14 18:08:04;;;;;;;65.18;34.28;;;;;;;-3.04;88.81;98503.75;10456105;28;20049;-71
2022/12/14 18:13:06;;;;;;;62.25;34.80;;;;;;;-3.14;89.44;98507.19;10438930;28;20048;-71
2022/12/14 18:18:07;;;;;;;71.50;35.72;;;;;;;-3.18;89.51;98515.75;10456053;28;20044;-71
2022/12/14 18:23:16;;;;;;;588.60;297.00;;;;;;;-2.65;87.48;98522.50;10457883;28;20045;-70
2022/12/14 18:28:18;;;;;;;484.35;222.60;;;;;;;-2.78;88.06;98525.97;10457408;28;20041;-71
2022/12/14 18:33:22;;;;;;;262.90;116.50;;;;;;;-3.07;89.18;98521.72;10456220;28;20037;-72
2022/12/14 18:38:25;;;;;;;340.63;150.60;;;;;;;-2.97;89.49;98535.41;10437874;28;20048;-72
2022/12/14 18:43:27;;;;;;;122.32;57.42;;;;;;;-3.27;90.11;98529.47;10437932;28;20049;-72
2022/12/14 18:48:29;;;;;;;84.00;44.80;;;;;;;-3.47;90.80;98544.03;10457573;28;20045;-71
2022/12/14 18:53:32;;;;;;;205.63;102.10;;;;;;;-3.29;90.14;98533.75;10456924;28;20037;-72
2022/12/14 18:58:35;;;;;;;169.23;85.07;;;;;;;-3.17;88.92;98531.16;10456056;28;20125;-70
2022/12/14 19:03:36;;;;;;;153.80;77.82;;;;;;;-3.10;86.66;98545.75;10458798;28;20040;-71
2022/12/14 19:08:40;;;;;;;119.72;60.28;;;;;;;-3.28;88.35;98548.28;10448314;28;20049;-71
2022/12/14 19:13:44;;;;;;;173.20;82.80;;;;;;;-3.16;87.12;98557.72;10463878;28;20124;-73
2022/12/14 19:18:45;;;;;;;157.18;77.30;;;;;;;-3.33;86.24;98566.28;10464873;28;20556;-74
2022/12/14 19:23:47;;;;;;;170.70;80.78;;;;;;;-3.47;88.06;98562.84;10465168;28;20052;-74
2022/12/14 19:28:49;;;;;;;114.43;56.08;;;;;;;-3.43;88.13;98567.16;10464022;28;20045;-74
2022/12/14 19:33:50;;;;;;;111.32;55.05;;;;;;;-3.19;85.54;98575.69;10464212;28;20048;-71
2022/12/14 19:38:52;;;;;;;89.30;43.10;;;;;;;-3.18;85.38;98580.00;10462443;28;20040;-72
2022/12/14 19:43:57;;;;;;;83.00;42.45;;;;;;;-3.26;85.65;98587.72;10492265;28;20037;-71
2022/12/14 19:48:59;;;;;;;66.22;36.70;;;;;;;-3.10;85.27;98589.44;10486444;28;20436;-71
2022/12/14 19:54:02;;;;;;;66.18;34.97;;;;;;;-3.14;84.60;98589.44;10483622;28;20433;-72
2022/12/14 19:59:04;;;;;;;66.18;36.58;;;;;;;-3.47;86.77;98590.25;10461791;28;20049;-71
2022/12/14 20:04:06;;;;;;;64.32;37.00;;;;;;;-3.35;87.78;98588.56;10462791;28;20041;-72
2022/12/14 20:09:08;;;;;;;63.72;35.08;;;;;;;-3.34;87.33;98589.41;10445159;28;20111;-71
2022/12/14 20:14:11;;;;;;;64.75;36.55;;;;;;;-3.43;87.62;98592.84;10445045;28;20048;-71
2022/12/14 20:19:13;;;;;;;76.68;40.95;;;;;;;-3.40;88.58;98594.56;10458210;22;20403;-72
2022/12/14 20:24:16;;;;;;;71.38;37.95;;;;;;;-3.41;87.92;98597.97;10406644;28;20037;-71
2022/12/14 20:29:18;;;;;;;73.28;37.63;;;;;;;-3.58;88.74;98597.97;10444982;28;20041;-72
2022/12/14 20:34:20;;;;;;;68.65;39.08;;;;;;;-3.69;89.50;98605.63;10445344;28;20048;-72
2022/12/14 20:39:22;;;;;;;74.63;38.72;;;;;;;-3.82;89.83;98604.75;10462976;28;20055;-72
2022/12/14 20:44:24;;;;;;;71.10;37.70;;;;;;;-3.84;90.42;98610.75;10445911;28;20037;-73
2022/12/14 20:49:28;;;;;;;68.35;37.92;;;;;;;-3.87;90.24;98603.88;10461993;28;20406;-71
2022/12/14 20:54:30;;;;;;;73.63;39.05;;;;;;;-3.90;90.01;98621.81;10378994;28;20042;-73
2022/12/14 20:59:32;;;;;;;72.85;39.13;;;;;;;-3.98;89.72;98623.53;10380479;28;20439;-72
2022/12/14 21:04:34;;;;;;;71.85;37.13;;;;;;;-4.24;90.31;98627.69;10378645;28;20038;-71
2022/12/14 21:09:36;;;;;;;70.22;37.53;;;;;;;-4.31;90.66;98630.22;10380744;28;20050;-71
2022/12/14 21:14:41;;;;;;;69.25;38.38;;;;;;;-4.42;90.67;98628.47;10361361;28;20046;-71
2022/12/14 21:19:43;;;;;;;71.22;38.70;;;;;;;-4.54;90.49;98636.09;10378587;28;20053;-71
2022/12/14 21:24:45;;;;;;;84.63;38.60;;;;;;;-4.61;91.17;98625.75;10376713;28;20041;-72
2022/12/14 21:30:08;;;;;;;69.28;36.95;;;;;;;-4.69;91.24;98632.56;10363251;28;20046;-71
2022/12/14 21:35:12;;;;;;;72.95;36.95;;;;;;;-4.70;90.92;98637.69;10359826;28;20492;-72
2022/12/14 21:42:09;;;;;;;63.80;34.30;;;;;;;-4.71;90.07;98641.94;10360697;28;20483;-71
2022/12/14 21:45:37;;;;;;;67.78;34.30;;;;;;;-4.74;89.54;98634.22;10379093;28;20045;-71
2022/12/14 21:50:41;;;;;;;69.10;35.65;;;;;;;-4.92;90.86;98642.66;10375508;28;20094;-71
2022/12/14 21:55:50;;;;;;;66.32;34.38;;;;;;;-4.92;91.00;98649.47;10377253;28;20495;-71
2022/12/14 22:00:51;;;;;;;70.00;34.65;;;;;;;-5.10;91.40;98656.16;10359110;28;20416;-71
2022/12/14 22:05:53;;;;;;;63.85;34.40;;;;;;;-5.19;91.76;98663.78;10358455;28;20076;-71
2022/12/14 22:11:01;;;;;;;68.55;35.45;;;;;;;-5.16;91.59;98665.53;10375873;28;20113;-72
2022/12/14 22:16:04;;;;;;;69.15;35.20;;;;;;;-4.90;90.26;98686.25;10377296;28;20384;-71
2022/12/14 22:21:06;;;;;;;71.43;35.72;;;;;;;-5.00;91.26;98671.63;10357987;28;20084;-71
2022/12/14 22:26:08;;;;;;;67.00;35.40;;;;;;;-4.91;89.94;98679.41;10374609;28;20058;-70
2022/12/14 22:31:10;;;;;;;65.97;33.75;;;;;;;-4.87;89.48;98676.00;10375628;28;20042;-71
2022/12/14 22:36:13;;;;;;;73.60;35.30;;;;;;;-5.03;89.47;98674.19;10358010;28;20092;-71
2022/12/14 22:41:17;;;;;;;75.57;36.05;;;;;;;-5.28;90.74;98686.75;10382784;28;20049;-72
2022/12/14 22:46:19;;;;;;;74.38;35.17;;;;;;;-5.33;91.19;98689.25;10384601;28;20038;-71
2022/12/14 22:51:22;;;;;;;65.82;33.38;;;;;;;-5.47;91.34;98695.94;10366227;28;20050;-70
2022/12/14 22:56:33;;;;;;;72.00;36.08;;;;;;;-5.48;91.14;98696.81;10365990;28;20056;-72
2022/12/14 23:01:36;;;;;;;68.18;34.42;;;;;;;-5.55;92.08;98705.25;10383026;28;20042;-70
2022/12/14 23:06:39;;;;;;;75.05;35.08;;;;;;;-5.56;91.12;98702.69;10381818;28;20053;-70
